Airfield :
LOGIN :

Register | Disclaimer

   EN    FR    IT 

 










Legend :    VFR   Marginal VFR   IFR   Intensive IFR   Very Intensive IFR
Visi :
Ceiling :
>= 8 km
>= 3000ft
5 to 8 km
1000 to 3000 ft
1500m to 5 km
500 to 1000 ft
800 to 1500m
200 to 500 ft
< 800m
< 200 ft
Symbols :   Thunderstorms  Fog  Heavy snow  Heavy precipitations  Wind > 20 kt
SIGMETs :     Misc.  Thunderstorms  Icing  Turbulence  Mountain Waves  Volcanic Ashes







- Airport Elevation : 325 ft
- IATA code : BES
- Download approach charts


LFRB - Brest

CURRENT METAR :
  • 250100Z AUTO 01005KT 5000 -RA BR OVC002/// ///TCU 15/14 Q1017 TEMPO SHRA SCT018TCU

EXPIRED METARs :
  • 250030Z AUTO 01005KT 5000 -RA BR OVC003 15/14 Q1017 TEMPO SHRA SCT018TCU
  • 250000Z AUTO 02005KT 9000 BKN003 OVC094 15/14 Q1017 TEMPO SHRA SCT018TCU
  • 242330Z AUTO 01005KT CAVOK 15/14 Q1017 TEMPO SHRA SCT018TCU
  • 242300Z AUTO 36003KT CAVOK 15/14 Q1017 TEMPO 4000 SHRA BKN015TCU

TAF AMD TAF LFRB
Valid from the 25 at 01:00 until the 26 at 06:00 UTC


250120Z 2501/2606 02004KT CAVOK
PROB30
TEMPO 2501/2503 3000 SHRA BKN002 SCT018TCU
PROB30
TEMPO 2503/2506 3000 BR BKN002
ATIS : +33 2 98 32 02 71
No reported NOTAMs for that airfield.
1 SIGMET reported for the Brest FIR (LFRR) :
 
Embedded thunderstorms and hail
LFRR SIGMET 8 VALID 242300/250300 LFPW
LFRR BREST FIR/UIR EMBD TSGR FCST WI N5000 W00215 - N5000 W00200 - N5000 W00015 - N4830 W00015 - N4830 W00145 - N5000 W00215 TOP FL380 MOV NE 20KT NC=



MET'MAP, your aeronautical weather chart ! - Copyright ORBIFLY December 2007 - Disclaimer

ORBIFLY MET'MAP TEAM :

Programming & Development : Alexandra Zaïnal
Concept & Development : Baudouin d'Aumeries
Co-Development & Prog : Marc-Olivier Méhu
Technical & hardware support : Manuel Goepfert

Contact : metmap@orbifly.com




SOURCES & CREDITS :

   NOAA